createdAt,value
2018-10-03T00:00:43.248Z,11.10
2018-10-03T00:03:11.675Z,11.10
2018-10-03T00:05:40.282Z,11.10
2018-10-03T00:08:08.823Z,11.10
2018-10-03T00:10:37.248Z,11.00
2018-10-03T00:13:05.759Z,11.10
2018-10-03T00:15:34.101Z,11.10
2018-10-03T00:18:02.415Z,11.10
2018-10-03T00:20:30.690Z,11.10
2018-10-03T00:22:59.288Z,11.10
2018-10-03T00:25:27.655Z,11.10
2018-10-03T00:27:56.014Z,11.10
2018-10-03T00:30:24.463Z,11.00
2018-10-03T00:32:52.826Z,11.00
2018-10-03T00:35:21.258Z,11.00
2018-10-03T00:37:49.611Z,11.00
2018-10-03T00:40:17.985Z,11.00
2018-10-03T00:42:46.372Z,10.90
2018-10-03T00:45:14.832Z,10.90
2018-10-03T00:47:43.149Z,10.80
2018-10-03T00:50:11.499Z,10.80
2018-10-03T00:52:39.860Z,10.80
2018-10-03T00:55:08.712Z,10.80
2018-10-03T00:57:37.043Z,10.80
2018-10-03T01:00:05.519Z,10.70
2018-10-03T01:02:33.920Z,10.80
2018-10-03T01:05:02.330Z,10.80
2018-10-03T01:07:30.755Z,10.80
2018-10-03T01:09:59.152Z,10.80
2018-10-03T01:12:27.647Z,10.80
2018-10-03T01:14:56.534Z,10.80
2018-10-03T01:17:24.830Z,10.80
2018-10-03T01:19:53.308Z,10.80
2018-10-03T01:22:21.717Z,10.90
2018-10-03T01:24:50.274Z,10.80
2018-10-03T01:27:18.705Z,10.70
2018-10-03T01:29:47.076Z,10.70
2018-10-03T01:32:15.387Z,10.70
2018-10-03T01:34:43.751Z,10.70
2018-10-03T01:37:12.019Z,10.70
2018-10-03T01:39:40.298Z,10.60
2018-10-03T01:42:08.646Z,10.60
2018-10-03T01:44:37.374Z,10.50
2018-10-03T01:47:05.670Z,10.40
2018-10-03T01:49:33.966Z,10.30
2018-10-03T01:52:02.282Z,10.20
2018-10-03T01:54:30.559Z,10.10
2018-10-03T01:56:58.895Z,10.10
2018-10-03T01:59:27.202Z,10.10
2018-10-03T02:01:55.547Z,10.20
2018-10-03T02:04:24.090Z,10.20
2018-10-03T02:06:59.183Z,10.10
2018-10-03T02:09:27.503Z,10.10
2018-10-03T02:12:12.750Z,10.20
2018-10-03T02:14:50.245Z,10.10
2018-10-03T02:17:38.151Z,10.10
2018-10-03T02:20:07.262Z,10.10
2018-10-03T02:22:48.673Z,10.10
2018-10-03T02:25:18.025Z,10.10
2018-10-03T02:27:46.341Z,10.10
2018-10-03T02:30:14.691Z,10.20
2018-10-03T02:32:42.994Z,10.10
2018-10-03T02:35:11.335Z,10.10
2018-10-03T02:37:39.641Z,10.10
2018-10-03T02:40:08.597Z,10.00
2018-10-03T02:42:36.941Z,10.10
2018-10-03T02:45:05.401Z,10.10
2018-10-03T02:47:33.970Z,10.10
2018-10-03T02:50:02.342Z,10.10
2018-10-03T02:52:33.210Z,10.10
2018-10-03T02:55:03.853Z,10.20
2018-10-03T02:57:32.887Z,10.20
2018-10-03T03:00:19.600Z,10.10
2018-10-03T03:02:47.919Z,10.10
2018-10-03T03:05:16.232Z,10.00
2018-10-03T03:07:53.270Z,9.90
2018-10-03T03:10:27.950Z,9.90
2018-10-03T03:12:56.295Z,9.90
2018-10-03T03:15:24.575Z,9.90
2018-10-03T03:17:52.921Z,10.00
2018-10-03T03:20:21.439Z,10.00
2018-10-03T03:22:59.573Z,10.00
2018-10-03T03:25:28.511Z,10.10
2018-10-03T03:27:56.887Z,10.10
2018-10-03T03:30:38.095Z,10.10
2018-10-03T03:33:09.829Z,10.10
2018-10-03T03:35:38.141Z,10.10
2018-10-03T03:38:06.837Z,10.20
2018-10-03T03:40:37.599Z,10.20
2018-10-03T03:43:05.886Z,10.20
2018-10-03T03:45:34.174Z,10.10
2018-10-03T03:48:02.459Z,10.10
2018-10-03T03:50:30.895Z,10.10
2018-10-03T03:52:59.183Z,10.10
2018-10-03T03:55:28.159Z,10.10
2018-10-03T03:57:56.479Z,10.10
2018-10-03T04:00:24.826Z,10.10
2018-10-03T04:02:53.224Z,10.10
2018-10-03T04:05:21.506Z,10.20
2018-10-03T04:07:49.804Z,10.20
2018-10-03T04:10:18.118Z,10.20
2018-10-03T04:12:46.413Z,10.20
2018-10-03T04:15:14.700Z,10.30
2018-10-03T04:17:43.059Z,10.30
2018-10-03T04:20:11.491Z,10.30
2018-10-03T04:22:40.050Z,10.30
2018-10-03T04:25:08.643Z,10.30
2018-10-03T04:27:36.998Z,10.30
2018-10-03T04:30:05.346Z,10.30
2018-10-03T04:32:33.607Z,10.30
2018-10-03T04:35:02.580Z,10.30
2018-10-03T04:37:30.879Z,10.30
2018-10-03T04:39:59.222Z,10.30
2018-10-03T04:42:27.542Z,10.30
2018-10-03T04:44:56.790Z,10.30
2018-10-03T04:47:25.083Z,10.30
2018-10-03T04:49:53.388Z,10.30
2018-10-03T04:52:21.847Z,10.30
2018-10-03T04:54:50.135Z,10.30
2018-10-03T04:57:18.767Z,10.30
2018-10-03T04:59:47.119Z,10.30
2018-10-03T05:02:15.439Z,10.30
2018-10-03T05:04:43.750Z,10.30
2018-10-03T05:07:12.092Z,10.30
2018-10-03T05:09:40.518Z,10.30
2018-10-03T05:12:08.905Z,10.30
2018-10-03T05:14:37.229Z,10.30
2018-10-03T05:17:05.560Z,10.30
2018-10-03T05:19:34.761Z,10.20
2018-10-03T05:22:03.119Z,10.20
2018-10-03T05:24:31.452Z,10.20
2018-10-03T05:26:59.884Z,10.30
2018-10-03T05:29:28.218Z,10.30
2018-10-03T05:31:56.590Z,10.30
2018-10-03T05:34:24.834Z,10.30
2018-10-03T05:36:53.115Z,10.40
2018-10-03T05:39:21.382Z,10.40
2018-10-03T05:41:49.740Z,10.40
2018-10-03T05:44:18.026Z,10.40
2018-10-03T05:46:46.309Z,10.40
2018-10-03T05:49:14.659Z,10.40
2018-10-03T05:51:42.950Z,10.40
2018-10-03T05:54:11.281Z,10.40
2018-10-03T05:56:39.656Z,10.40
2018-10-03T05:59:08.000Z,10.40
2018-10-03T06:01:36.305Z,10.40
2018-10-03T06:04:04.658Z,10.40
2018-10-03T06:06:33.026Z,10.40
2018-10-03T06:09:01.322Z,10.40
2018-10-03T06:11:29.645Z,10.40
2018-10-03T06:13:57.975Z,10.40
2018-10-03T06:16:26.277Z,10.50
2018-10-03T06:18:54.595Z,10.50
2018-10-03T06:21:22.855Z,10.50
2018-10-03T06:23:51.181Z,10.40
2018-10-03T06:26:19.515Z,10.40
2018-10-03T06:28:47.860Z,10.40
2018-10-03T06:31:16.161Z,10.40
2018-10-03T06:33:44.497Z,10.50
2018-10-03T06:36:12.836Z,10.60
2018-10-03T06:38:41.137Z,10.60
2018-10-03T06:41:09.470Z,10.70
2018-10-03T06:43:38.125Z,10.80
2018-10-03T06:46:06.500Z,10.90
2018-10-03T06:48:34.850Z,10.90
2018-10-03T06:51:03.350Z,10.90
2018-10-03T06:53:31.694Z,10.90
2018-10-03T06:56:00.079Z,10.70
2018-10-03T06:58:28.451Z,10.30
2018-10-03T07:00:57.163Z,9.80
2018-10-03T07:03:25.567Z,9.70
2018-10-03T07:05:54.208Z,9.60
2018-10-03T07:08:22.638Z,9.70
2018-10-03T07:10:51.444Z,9.70
2018-10-03T07:13:19.962Z,9.80
2018-10-03T07:15:48.382Z,9.90
2018-10-03T07:18:16.744Z,10.00
2018-10-03T07:20:45.087Z,10.10
2018-10-03T07:23:13.407Z,10.20
2018-10-03T07:25:41.863Z,10.30
2018-10-03T07:28:10.642Z,10.40
2018-10-03T07:30:39.074Z,10.50
2018-10-03T07:33:07.964Z,10.60
2018-10-03T07:35:36.394Z,10.70
2018-10-03T07:38:04.810Z,10.70
2018-10-03T07:40:33.218Z,10.80
2018-10-03T07:43:01.609Z,10.90
2018-10-03T07:45:29.924Z,11.00
2018-10-03T07:47:58.367Z,11.00
2018-10-03T07:50:26.863Z,11.10
2018-10-03T07:52:55.196Z,11.10
2018-10-03T07:55:23.598Z,11.10
2018-10-03T07:57:52.112Z,11.20
2018-10-03T08:00:25.475Z,11.20
2018-10-03T08:02:57.858Z,11.30
2018-10-03T08:05:26.576Z,11.30
2018-10-03T08:07:55.211Z,11.40
2018-10-03T08:10:23.499Z,11.60
2018-10-03T08:12:51.880Z,11.80
2018-10-03T08:15:20.296Z,12.00
2018-10-03T08:17:48.680Z,12.00
2018-10-03T08:20:17.006Z,12.00
2018-10-03T08:22:45.348Z,11.90
2018-10-03T08:25:13.650Z,12.00
2018-10-03T08:27:41.995Z,12.00
2018-10-03T08:30:11.206Z,12.00
2018-10-03T08:32:39.772Z,12.00
2018-10-03T08:35:08.291Z,12.00
2018-10-03T08:37:36.650Z,12.10
2018-10-03T08:40:05.469Z,12.10
2018-10-03T08:42:35.226Z,12.00
2018-10-03T08:45:03.904Z,12.00
2018-10-03T08:47:33.261Z,12.00
2018-10-03T08:50:01.720Z,12.00
2018-10-03T08:52:30.126Z,12.10
2018-10-03T08:54:58.453Z,12.00
2018-10-03T08:57:26.998Z,12.00
2018-10-03T08:59:55.508Z,11.90
2018-10-03T09:05:23.478Z,12.00
2018-10-03T09:10:49.563Z,12.10
2018-10-03T09:13:17.870Z,12.10
2018-10-03T09:15:47.072Z,12.00
2018-10-03T09:18:15.435Z,12.00
2018-10-03T09:20:44.063Z,12.00
2018-10-03T09:23:12.899Z,12.20
2018-10-03T09:25:41.276Z,12.30
2018-10-03T09:28:21.928Z,12.50
2018-10-03T09:30:50.659Z,12.40
2018-10-03T09:33:19.944Z,12.50
2018-10-03T09:35:48.460Z,12.60
2018-10-03T09:38:16.940Z,12.90
2018-10-03T09:40:46.017Z,12.90
2018-10-03T09:43:14.374Z,13.00
2018-10-03T09:45:42.883Z,13.00
2018-10-03T09:48:11.846Z,13.20
2018-10-03T09:50:49.006Z,13.50
2018-10-03T09:53:22.426Z,13.70
2018-10-03T09:55:50.834Z,13.50
2018-10-03T09:58:20.207Z,13.30
2018-10-03T10:00:53.995Z,13.20
2018-10-03T10:03:22.524Z,12.90
2018-10-03T10:05:51.030Z,12.90
2018-10-03T10:08:19.337Z,12.90
2018-10-03T10:10:48.897Z,13.00
2018-10-03T10:13:20.507Z,13.00
2018-10-03T10:15:48.826Z,13.10
2018-10-03T10:18:17.302Z,13.10
2018-10-03T10:20:45.738Z,13.20
2018-10-03T10:23:17.015Z,13.30
2018-10-03T10:25:45.413Z,13.50
2018-10-03T10:28:14.072Z,13.60
2018-10-03T10:30:42.636Z,13.60
2018-10-03T10:33:11.205Z,13.40
2018-10-03T10:35:39.626Z,13.40
2018-10-03T10:38:08.022Z,13.40
2018-10-03T10:40:36.597Z,13.70
2018-10-03T10:43:04.930Z,13.90
2018-10-03T10:45:33.444Z,14.10
2018-10-03T10:48:03.982Z,13.90
2018-10-03T10:50:32.339Z,13.50
2018-10-03T10:53:00.795Z,13.10
2018-10-03T10:55:29.717Z,13.20
2018-10-03T10:57:58.115Z,13.20
2018-10-03T11:00:26.594Z,12.90
2018-10-03T11:02:54.911Z,12.30
2018-10-03T11:05:23.798Z,11.10
2018-10-03T11:07:52.397Z,10.30
2018-10-03T11:10:20.898Z,10.00
2018-10-03T11:12:49.216Z,10.00
2018-10-03T11:15:19.338Z,10.10
2018-10-03T11:17:48.322Z,10.20
2018-10-03T11:20:16.818Z,10.30
2018-10-03T11:22:45.185Z,10.40
2018-10-03T11:25:13.643Z,10.50
2018-10-03T11:27:42.307Z,10.70
2018-10-03T11:30:10.680Z,10.90
2018-10-03T11:32:39.120Z,11.00
2018-10-03T11:35:07.802Z,11.10
2018-10-03T11:37:36.126Z,11.00
2018-10-03T11:40:04.564Z,11.10
2018-10-03T11:42:33.924Z,11.20
2018-10-03T11:45:02.375Z,11.50
2018-10-03T11:47:37.435Z,11.80
2018-10-03T11:50:06.018Z,12.20
2018-10-03T11:52:35.450Z,12.60
2018-10-03T11:55:03.930Z,12.90
2018-10-03T11:57:32.414Z,12.80
2018-10-03T12:05:44.552Z,12.50
2018-10-03T12:08:12.901Z,12.40
2018-10-03T12:10:41.232Z,12.30
2018-10-03T12:13:11.479Z,12.10
2018-10-03T12:15:41.390Z,12.10
2018-10-03T12:18:09.742Z,12.10
2018-10-03T12:20:38.250Z,12.20
2018-10-03T12:23:06.585Z,12.50
2018-10-03T12:25:35.679Z,12.70
2018-10-03T12:28:04.124Z,13.20
2018-10-03T12:30:32.598Z,13.90
2018-10-03T12:33:00.921Z,14.40
2018-10-03T12:35:33.647Z,14.40
2018-10-03T12:38:03.024Z,13.20
2018-10-03T12:40:32.123Z,11.60
2018-10-03T12:43:00.529Z,10.70
2018-10-03T12:45:30.925Z,10.80
2018-10-03T12:47:59.380Z,10.70
2018-10-03T12:50:28.100Z,10.80
2018-10-03T12:52:56.870Z,11.40
2018-10-03T12:55:27.951Z,12.40
2018-10-03T12:57:56.318Z,13.60
2018-10-03T13:00:30.110Z,14.50
2018-10-03T13:02:59.369Z,15.40
2018-10-03T15:56:25.810Z,15.90
2018-10-03T15:58:54.088Z,13.80
2018-10-03T16:53:13.426Z,13.70
2018-10-03T17:00:37.876Z,12.40
2018-10-03T17:03:06.303Z,12.30
2018-10-03T17:05:34.622Z,12.30
2018-10-03T17:08:02.896Z,12.30
2018-10-03T17:10:31.430Z,12.30
2018-10-03T17:12:59.767Z,12.30
2018-10-03T17:15:28.185Z,12.20
2018-10-03T17:17:56.524Z,12.10
2018-10-03T17:20:25.021Z,12.10
2018-10-03T17:22:53.458Z,12.10
2018-10-03T17:25:21.786Z,12.10
2018-10-03T17:27:50.318Z,12.00
2018-10-03T17:32:47.955Z,11.90
2018-10-03T17:35:16.417Z,11.90
2018-10-03T17:37:44.773Z,11.80
2018-10-03T17:40:13.136Z,11.80
2018-10-03T17:42:41.412Z,11.70
2018-10-03T17:45:09.740Z,11.60
2018-10-03T17:47:38.074Z,11.60
2018-10-03T17:50:06.393Z,11.60
2018-10-03T17:52:34.726Z,11.60
2018-10-03T17:55:02.998Z,11.50
2018-10-03T19:11:35.936Z,11.50
2018-10-03T19:14:04.310Z,10.80
2018-10-03T19:16:32.659Z,10.80
2018-10-03T19:19:00.959Z,10.80
2018-10-03T19:21:29.285Z,10.80
2018-10-03T19:23:57.612Z,10.80
2018-10-03T19:26:25.967Z,10.80
2018-10-03T19:28:54.193Z,10.80
2018-10-03T19:31:22.557Z,10.80
2018-10-03T19:33:50.858Z,10.70
2018-10-03T19:36:19.330Z,10.80
2018-10-03T19:38:47.644Z,10.70
2018-10-03T19:41:15.928Z,10.60
2018-10-03T19:43:44.472Z,10.60
2018-10-03T19:46:12.766Z,10.60
2018-10-03T19:48:41.070Z,10.50
2018-10-03T19:51:09.377Z,10.50
2018-10-03T19:53:38.126Z,10.50
2018-10-03T19:56:06.447Z,10.50
2018-10-03T19:58:34.754Z,10.50
2018-10-03T20:01:03.065Z,10.60
2018-10-03T20:03:31.475Z,10.50
2018-10-03T20:05:59.814Z,10.50
2018-10-03T20:08:28.172Z,10.50
2018-10-03T20:10:56.467Z,10.50
2018-10-03T20:13:24.810Z,10.40
2018-10-03T20:15:53.123Z,10.40
2018-10-03T20:18:22.146Z,10.40
2018-10-03T20:20:51.032Z,10.40
2018-10-03T20:23:19.378Z,10.40
2018-10-03T20:25:56.922Z,10.40
2018-10-03T20:28:25.240Z,10.30
2018-10-03T20:30:54.051Z,10.30
2018-10-03T20:33:22.338Z,10.30
2018-10-03T20:35:50.650Z,10.30
2018-10-03T20:38:19.917Z,10.20
2018-10-03T20:40:49.903Z,10.30
2018-10-03T20:43:18.243Z,10.20
2018-10-03T20:45:46.671Z,10.20
2018-10-03T20:48:15.779Z,10.20
2018-10-03T20:50:44.131Z,10.20
2018-10-03T20:53:12.754Z,10.10
2018-10-03T20:55:41.102Z,10.10
2018-10-03T20:58:09.394Z,10.10
2018-10-03T21:00:37.829Z,10.00
2018-10-03T21:03:06.479Z,10.00
2018-10-03T21:05:34.985Z,10.00
2018-10-03T21:08:04.211Z,9.90
2018-10-03T21:10:32.722Z,9.90
2018-10-03T21:13:01.380Z,9.90
2018-10-03T21:15:29.866Z,9.90
2018-10-03T21:17:58.198Z,9.90
2018-10-03T21:20:26.944Z,9.90
2018-10-03T21:22:55.854Z,9.90
2018-10-03T21:25:24.312Z,9.80
2018-10-03T21:27:52.710Z,9.80
2018-10-03T21:30:21.122Z,9.70
2018-10-03T21:32:49.447Z,9.70
2018-10-03T21:35:17.741Z,9.70
2018-10-03T21:37:46.182Z,9.60
2018-10-03T21:40:14.503Z,9.60
2018-10-03T21:42:42.809Z,9.60
2018-10-03T21:45:11.169Z,9.60
2018-10-03T21:47:39.499Z,9.60
2018-10-03T21:50:07.908Z,9.50
2018-10-03T21:52:39.271Z,9.50
2018-10-03T21:55:07.636Z,9.50
2018-10-03T21:57:36.351Z,9.60
2018-10-03T22:00:05.934Z,9.50
2018-10-03T22:02:34.245Z,9.50
2018-10-03T22:05:02.658Z,9.50
2018-10-03T22:07:31.259Z,9.50
2018-10-03T22:09:59.776Z,9.50
2018-10-03T22:12:28.187Z,9.50
2018-10-03T22:14:56.562Z,9.50
2018-10-03T22:17:25.873Z,9.40
2018-10-03T22:19:55.873Z,9.40
2018-10-03T22:22:26.286Z,9.40
2018-10-03T22:24:54.540Z,9.40
2018-10-03T22:27:22.866Z,9.30
2018-10-03T22:29:54.355Z,9.30
2018-10-03T22:32:22.743Z,9.30
2018-10-03T22:34:51.980Z,9.30
2018-10-03T22:37:22.540Z,9.30
2018-10-03T22:39:52.359Z,9.30
2018-10-03T22:42:26.514Z,9.20
2018-10-03T22:44:55.148Z,9.30
2018-10-03T22:47:29.334Z,9.30
2018-10-03T22:50:01.035Z,9.30
2018-10-03T22:52:30.040Z,9.30
2018-10-03T22:55:04.149Z,9.30
2018-10-03T22:57:41.069Z,9.30
2018-10-03T23:00:09.892Z,9.30
2018-10-03T23:02:38.574Z,9.30
2018-10-03T23:05:06.854Z,9.20
2018-10-03T23:07:35.129Z,9.20
2018-10-03T23:10:03.409Z,9.20
2018-10-03T23:12:34.414Z,9.20
2018-10-03T23:15:02.769Z,9.20
2018-10-03T23:17:31.098Z,9.20
2018-10-03T23:19:59.788Z,9.20
2018-10-03T23:22:32.895Z,9.10
2018-10-03T23:25:01.603Z,9.10
2018-10-03T23:27:29.950Z,9.10
2018-10-03T23:29:58.252Z,9.10
2018-10-03T23:32:26.620Z,9.00
2018-10-03T23:34:54.913Z,9.00
2018-10-03T23:37:26.913Z,8.90
2018-10-03T23:39:56.524Z,8.90
2018-10-03T23:42:28.249Z,8.90
2018-10-03T23:44:57.692Z,8.80
2018-10-03T23:47:26.632Z,8.80
2018-10-03T23:49:55.165Z,8.90
2018-10-03T23:52:23.770Z,8.90
2018-10-03T23:54:52.130Z,8.90
2018-10-03T23:57:20.500Z,8.90
2018-10-03T23:59:49.039Z,8.90
